sensor_id;sensor_type;location;lat;lon;timestamp;temperature;humidity
69598;SHT31;70000;51.176;-115.568;2023-08-07T00:00:16;18.42;65.12
69598;SHT31;70000;51.176;-115.568;2023-08-07T00:02:53;18.46;64.68
69598;SHT31;70000;51.176;-115.568;2023-08-07T00:05:38;18.49;64.16
69598;SHT31;70000;51.176;-115.568;2023-08-07T00:08:08;18.54;64.21
69598;SHT31;70000;51.176;-115.568;2023-08-07T00:10:50;18.61;64.68
69598;SHT31;70000;51.176;-115.568;2023-08-07T00:13:34;18.61;64.76
69598;SHT31;70000;51.176;-115.568;2023-08-07T00:16:05;18.58;65.73
69598;SHT31;70000;51.176;-115.568;2023-08-07T00:18:46;18.58;66.23
69598;SHT31;70000;51.176;-115.568;2023-08-07T00:21:25;18.57;66.79
69598;SHT31;70000;51.176;-115.568;2023-08-07T00:24:30;18.56;67.13
69598;SHT31;70000;51.176;-115.568;2023-08-07T00:27:07;18.56;67.33
69598;SHT31;70000;51.176;-115.568;2023-08-07T00:29:40;18.56;67.07
69598;SHT31;70000;51.176;-115.568;2023-08-07T00:32:12;18.53;67.11
69598;SHT31;70000;51.176;-115.568;2023-08-07T00:34:54;18.49;67.06
69598;SHT31;70000;51.176;-115.568;2023-08-07T00:37:29;18.49;67.82
69598;SHT31;70000;51.176;-115.568;2023-08-07T00:40:02;18.52;68.10
69598;SHT31;70000;51.176;-115.568;2023-08-07T00:42:36;18.57;68.36
69598;SHT31;70000;51.176;-115.568;2023-08-07T00:45:08;18.65;67.55
69598;SHT31;70000;51.176;-115.568;2023-08-07T00:47:40;18.75;67.26
69598;SHT31;70000;51.176;-115.568;2023-08-07T00:50:10;18.89;66.97
69598;SHT31;70000;51.176;-115.568;2023-08-07T00:52:40;18.94;66.61
69598;SHT31;70000;51.176;-115.568;2023-08-07T00:55:09;19.08;66.71
69598;SHT31;70000;51.176;-115.568;2023-08-07T00:57:41;19.23;67.62
69598;SHT31;70000;51.176;-115.568;2023-08-07T01:00:29;19.35;68.68
69598;SHT31;70000;51.176;-115.568;2023-08-07T01:02:59;19.38;68.31
69598;SHT31;70000;51.176;-115.568;2023-08-07T01:05:32;19.36;68.04
69598;SHT31;70000;51.176;-115.568;2023-08-07T01:08:04;19.30;67.23
69598;SHT31;70000;51.176;-115.568;2023-08-07T01:16:22;19.18;67.68
69598;SHT31;70000;51.176;-115.568;2023-08-07T01:19:04;19.10;67.56
69598;SHT31;70000;51.176;-115.568;2023-08-07T01:21:43;19.03;67.90
69598;SHT31;70000;51.176;-115.568;2023-08-07T01:24:17;18.97;67.84
69598;SHT31;70000;51.176;-115.568;2023-08-07T01:26:46;18.78;67.82
69598;SHT31;70000;51.176;-115.568;2023-08-07T01:29:32;18.65;68.27
69598;SHT31;70000;51.176;-115.568;2023-08-07T01:32:28;18.45;68.47
69598;SHT31;70000;51.176;-115.568;2023-08-07T01:35:03;18.40;68.93
69598;SHT31;70000;51.176;-115.568;2023-08-07T01:37:42;18.37;69.31
69598;SHT31;70000;51.176;-115.568;2023-08-07T01:40:21;18.38;68.96
69598;SHT31;70000;51.176;-115.568;2023-08-07T01:42:58;18.32;68.17
69598;SHT31;70000;51.176;-115.568;2023-08-07T01:45:32;18.27;68.66
69598;SHT31;70000;51.176;-115.568;2023-08-07T01:48:03;18.25;68.85
69598;SHT31;70000;51.176;-115.568;2023-08-07T01:50:52;18.25;68.74
69598;SHT31;70000;51.176;-115.568;2023-08-07T01:53:23;18.25;67.10
69598;SHT31;70000;51.176;-115.568;2023-08-07T01:55:58;18.25;66.36
69598;SHT31;70000;51.176;-115.568;2023-08-07T01:58:27;18.20;67.14
69598;SHT31;70000;51.176;-115.568;2023-08-07T02:01:01;18.16;67.55
69598;SHT31;70000;51.176;-115.568;2023-08-07T02:03:48;18.16;67.21
69598;SHT31;70000;51.176;-115.568;2023-08-07T02:06:19;18.19;66.59
69598;SHT31;70000;51.176;-115.568;2023-08-07T02:08:48;18.19;67.06
69598;SHT31;70000;51.176;-115.568;2023-08-07T02:11:26;18.19;67.40
69598;SHT31;70000;51.176;-115.568;2023-08-07T02:13:55;18.20;66.80
69598;SHT31;70000;51.176;-115.568;2023-08-07T02:16:54;18.17;66.56
69598;SHT31;70000;51.176;-115.568;2023-08-07T02:19:44;18.13;67.50
69598;SHT31;70000;51.176;-115.568;2023-08-07T02:22:20;18.10;68.44
69598;SHT31;70000;51.176;-115.568;2023-08-07T02:25:02;18.09;69.02
69598;SHT31;70000;51.176;-115.568;2023-08-07T02:27:37;18.09;68.51
69598;SHT31;70000;51.176;-115.568;2023-08-07T02:30:18;18.05;68.34
69598;SHT31;70000;51.176;-115.568;2023-08-07T02:32:47;18.00;68.45
69598;SHT31;70000;51.176;-115.568;2023-08-07T02:35:23;17.95;68.52
69598;SHT31;70000;51.176;-115.568;2023-08-07T02:37:53;17.90;68.89
69598;SHT31;70000;51.176;-115.568;2023-08-07T02:40:29;17.89;68.99
69598;SHT31;70000;51.176;-115.568;2023-08-07T02:43:07;17.87;69.07
69598;SHT31;70000;51.176;-115.568;2023-08-07T02:45:39;17.86;69.29
69598;SHT31;70000;51.176;-115.568;2023-08-07T02:48:13;17.80;69.30
69598;SHT31;70000;51.176;-115.568;2023-08-07T02:50:42;17.77;69.84
69598;SHT31;70000;51.176;-115.568;2023-08-07T02:53:11;17.75;69.64
69598;SHT31;70000;51.176;-115.568;2023-08-07T02:55:42;17.73;69.82
69598;SHT31;70000;51.176;-115.568;2023-08-07T02:58:17;17.72;70.30
69598;SHT31;70000;51.176;-115.568;2023-08-07T03:00:46;17.71;70.05
69598;SHT31;70000;51.176;-115.568;2023-08-07T03:03:16;17.66;69.76
69598;SHT31;70000;51.176;-115.568;2023-08-07T03:05:54;17.60;69.78
69598;SHT31;70000;51.176;-115.568;2023-08-07T03:13:11;17.48;70.30
69598;SHT31;70000;51.176;-115.568;2023-08-07T03:16:01;17.45;70.51
69598;SHT31;70000;51.176;-115.568;2023-08-07T03:18:38;17.44;70.53
69598;SHT31;70000;51.176;-115.568;2023-08-07T03:21:10;17.39;70.75
69598;SHT31;70000;51.176;-115.568;2023-08-07T03:23:53;17.34;71.01
69598;SHT31;70000;51.176;-115.568;2023-08-07T03:26:30;17.30;71.33
69598;SHT31;70000;51.176;-115.568;2023-08-07T03:29:01;17.29;71.19
69598;SHT31;70000;51.176;-115.568;2023-08-07T03:31:41;17.26;71.41
69598;SHT31;70000;51.176;-115.568;2023-08-07T03:34:13;17.23;71.55
69598;SHT31;70000;51.176;-115.568;2023-08-07T03:36:43;17.19;71.96
69598;SHT31;70000;51.176;-115.568;2023-08-07T03:39:14;17.13;72.08
69598;SHT31;70000;51.176;-115.568;2023-08-07T03:41:47;17.10;72.20
69598;SHT31;70000;51.176;-115.568;2023-08-07T03:44:19;17.05;72.14
69598;SHT31;70000;51.176;-115.568;2023-08-07T03:46:59;16.99;72.25
69598;SHT31;70000;51.176;-115.568;2023-08-07T03:49:33;16.95;72.09
69598;SHT31;70000;51.176;-115.568;2023-08-07T03:52:04;16.92;72.12
69598;SHT31;70000;51.176;-115.568;2023-08-07T03:54:37;16.88;72.34
69598;SHT31;70000;51.176;-115.568;2023-08-07T03:57:06;16.82;72.41
69598;SHT31;70000;51.176;-115.568;2023-08-07T03:59:39;16.82;72.47
69598;SHT31;70000;51.176;-115.568;2023-08-07T04:02:08;16.74;72.53
69598;SHT31;70000;51.176;-115.568;2023-08-07T04:04:37;16.68;72.60
69598;SHT31;70000;51.176;-115.568;2023-08-07T04:07:06;16.64;72.52
69598;SHT31;70000;51.176;-115.568;2023-08-07T04:09:35;16.62;72.71
69598;SHT31;70000;51.176;-115.568;2023-08-07T04:12:07;16.59;72.41
69598;SHT31;70000;51.176;-115.568;2023-08-07T04:14:40;16.57;72.50
69598;SHT31;70000;51.176;-115.568;2023-08-07T04:17:14;16.53;72.28
69598;SHT31;70000;51.176;-115.568;2023-08-07T04:19:50;16.44;72.49
69598;SHT31;70000;51.176;-115.568;2023-08-07T04:22:21;16.36;72.65
69598;SHT31;70000;51.176;-115.568;2023-08-07T04:24:54;16.36;72.79
69598;SHT31;70000;51.176;-115.568;2023-08-07T04:27:27;16.36;72.68
69598;SHT31;70000;51.176;-115.568;2023-08-07T04:30:03;16.31;72.43
69598;SHT31;70000;51.176;-115.568;2023-08-07T04:32:41;16.27;72.69
69598;SHT31;70000;51.176;-115.568;2023-08-07T04:35:10;16.24;72.77
69598;SHT31;70000;51.176;-115.568;2023-08-07T04:37:42;16.21;72.84
69598;SHT31;70000;51.176;-115.568;2023-08-07T04:40:12;16.17;72.75
69598;SHT31;70000;51.176;-115.568;2023-08-07T04:42:41;16.11;72.69
69598;SHT31;70000;51.176;-115.568;2023-08-07T04:45:10;16.07;72.96
69598;SHT31;70000;51.176;-115.568;2023-08-07T04:47:39;16.03;72.87
69598;SHT31;70000;51.176;-115.568;2023-08-07T04:50:09;15.98;72.80
69598;SHT31;70000;51.176;-115.568;2023-08-07T04:52:38;15.93;72.85
69598;SHT31;70000;51.176;-115.568;2023-08-07T04:55:08;15.91;72.73
69598;SHT31;70000;51.176;-115.568;2023-08-07T04:57:38;15.88;72.68
69598;SHT31;70000;51.176;-115.568;2023-08-07T05:00:10;15.84;72.99
69598;SHT31;70000;51.176;-115.568;2023-08-07T05:02:41;15.80;73.10
69598;SHT31;70000;51.176;-115.568;2023-08-07T05:05:11;15.72;73.17
69598;SHT31;70000;51.176;-115.568;2023-08-07T05:07:42;15.63;73.24
69598;SHT31;70000;51.176;-115.568;2023-08-07T05:10:15;15.60;73.28
69598;SHT31;70000;51.176;-115.568;2023-08-07T05:12:49;15.52;73.35
69598;SHT31;70000;51.176;-115.568;2023-08-07T05:15:31;15.48;73.29
69598;SHT31;70000;51.176;-115.568;2023-08-07T05:18:02;15.41;73.18
69598;SHT31;70000;51.176;-115.568;2023-08-07T05:20:35;15.37;73.40
69598;SHT31;70000;51.176;-115.568;2023-08-07T05:23:08;15.34;73.54
69598;SHT31;70000;51.176;-115.568;2023-08-07T05:25:39;15.33;73.56
69598;SHT31;70000;51.176;-115.568;2023-08-07T05:28:08;15.34;73.47
69598;SHT31;70000;51.176;-115.568;2023-08-07T05:30:37;15.32;73.45
69598;SHT31;70000;51.176;-115.568;2023-08-07T05:33:07;15.29;73.71
69598;SHT31;70000;51.176;-115.568;2023-08-07T05:35:37;15.26;73.69
69598;SHT31;70000;51.176;-115.568;2023-08-07T05:38:06;15.23;73.86
69598;SHT31;70000;51.176;-115.568;2023-08-07T05:40:39;15.22;73.97
69598;SHT31;70000;51.176;-115.568;2023-08-07T05:43:11;15.18;73.92
69598;SHT31;70000;51.176;-115.568;2023-08-07T05:45:49;15.13;74.06
69598;SHT31;70000;51.176;-115.568;2023-08-07T05:48:24;15.13;73.84
69598;SHT31;70000;51.176;-115.568;2023-08-07T05:50:53;15.18;73.54
69598;SHT31;70000;51.176;-115.568;2023-08-07T05:53:23;15.19;73.46
69598;SHT31;70000;51.176;-115.568;2023-08-07T05:55:55;15.18;73.68
69598;SHT31;70000;51.176;-115.568;2023-08-07T05:58:25;15.16;73.84
69598;SHT31;70000;51.176;-115.568;2023-08-07T06:00:57;15.17;73.71
69598;SHT31;70000;51.176;-115.568;2023-08-07T06:03:29;15.16;73.74
69598;SHT31;70000;51.176;-115.568;2023-08-07T06:06:01;15.18;73.89
69598;SHT31;70000;51.176;-115.568;2023-08-07T06:08:48;15.15;73.65
69598;SHT31;70000;51.176;-115.568;2023-08-07T06:11:17;15.10;73.64
69598;SHT31;70000;51.176;-115.568;2023-08-07T06:13:52;15.04;73.51
69598;SHT31;70000;51.176;-115.568;2023-08-07T06:16:22;15.03;73.41
69598;SHT31;70000;51.176;-115.568;2023-08-07T06:18:52;15.04;73.35
69598;SHT31;70000;51.176;-115.568;2023-08-07T06:21:25;15.02;73.54
69598;SHT31;70000;51.176;-115.568;2023-08-07T06:23:56;15.00;73.45
69598;SHT31;70000;51.176;-115.568;2023-08-07T06:26:26;14.97;73.61
69598;SHT31;70000;51.176;-115.568;2023-08-07T06:28:55;14.94;73.41
69598;SHT31;70000;51.176;-115.568;2023-08-07T06:31:24;14.98;73.19
69598;SHT31;70000;51.176;-115.568;2023-08-07T06:33:53;15.03;73.20
69598;SHT31;70000;51.176;-115.568;2023-08-07T06:36:22;15.05;73.11
69598;SHT31;70000;51.176;-115.568;2023-08-07T06:38:52;15.07;72.71
69598;SHT31;70000;51.176;-115.568;2023-08-07T06:41:21;15.06;72.77
69598;SHT31;70000;51.176;-115.568;2023-08-07T06:43:50;15.05;72.59
69598;SHT31;70000;51.176;-115.568;2023-08-07T06:46:20;15.01;72.54
69598;SHT31;70000;51.176;-115.568;2023-08-07T06:48:55;14.96;73.04
69598;SHT31;70000;51.176;-115.568;2023-08-07T06:51:24;14.89;73.23
69598;SHT31;70000;51.176;-115.568;2023-08-07T06:53:54;14.81;73.42
69598;SHT31;70000;51.176;-115.568;2023-08-07T06:56:24;14.80;73.34
69598;SHT31;70000;51.176;-115.568;2023-08-07T06:58:53;14.84;73.28
69598;SHT31;70000;51.176;-115.568;2023-08-07T07:01:22;14.87;72.89
69598;SHT31;70000;51.176;-115.568;2023-08-07T07:03:51;14.87;72.74
69598;SHT31;70000;51.176;-115.568;2023-08-07T07:06:25;14.84;72.96
69598;SHT31;70000;51.176;-115.568;2023-08-07T07:08:55;14.81;73.06
69598;SHT31;70000;51.176;-115.568;2023-08-07T07:11:29;14.78;72.92
69598;SHT31;70000;51.176;-115.568;2023-08-07T07:13:58;14.75;72.80
69598;SHT31;70000;51.176;-115.568;2023-08-07T07:16:27;14.70;72.78
69598;SHT31;70000;51.176;-115.568;2023-08-07T07:18:57;14.68;72.84
69598;SHT31;70000;51.176;-115.568;2023-08-07T07:21:27;14.64;72.95
69598;SHT31;70000;51.176;-115.568;2023-08-07T07:24:00;14.62;72.92
69598;SHT31;70000;51.176;-115.568;2023-08-07T07:26:32;14.63;72.73
69598;SHT31;70000;51.176;-115.568;2023-08-07T07:29:07;14.63;72.49
69598;SHT31;70000;51.176;-115.568;2023-08-07T07:31:36;14.62;72.49
69598;SHT31;70000;51.176;-115.568;2023-08-07T07:34:05;14.61;72.47
69598;SHT31;70000;51.176;-115.568;2023-08-07T07:36:37;14.58;72.56
69598;SHT31;70000;51.176;-115.568;2023-08-07T07:39:07;14.58;72.77
69598;SHT31;70000;51.176;-115.568;2023-08-07T07:41:38;14.60;72.92
69598;SHT31;70000;51.176;-115.568;2023-08-07T07:44:09;14.59;72.86
69598;SHT31;70000;51.176;-115.568;2023-08-07T07:46:40;14.57;72.91
69598;SHT31;70000;51.176;-115.568;2023-08-07T07:49:09;14.55;73.02
69598;SHT31;70000;51.176;-115.568;2023-08-07T07:51:39;14.48;73.33
69598;SHT31;70000;51.176;-115.568;2023-08-07T07:54:08;14.46;73.13
69598;SHT31;70000;51.176;-115.568;2023-08-07T07:56:41;14.42;73.14
69598;SHT31;70000;51.176;-115.568;2023-08-07T07:59:13;14.37;73.29
69598;SHT31;70000;51.176;-115.568;2023-08-07T08:01:42;14.35;73.32
69598;SHT31;70000;51.176;-115.568;2023-08-07T08:04:27;14.35;73.44
69598;SHT31;70000;51.176;-115.568;2023-08-07T08:07:00;14.35;73.29
69598;SHT31;70000;51.176;-115.568;2023-08-07T08:09:31;14.33;73.31
69598;SHT31;70000;51.176;-115.568;2023-08-07T08:12:07;14.29;73.27
69598;SHT31;70000;51.176;-115.568;2023-08-07T08:14:41;14.28;73.30
69598;SHT31;70000;51.176;-115.568;2023-08-07T08:17:22;14.26;73.35
69598;SHT31;70000;51.176;-115.568;2023-08-07T08:19:52;14.24;73.37
69598;SHT31;70000;51.176;-115.568;2023-08-07T08:22:21;14.22;73.38
69598;SHT31;70000;51.176;-115.568;2023-08-07T08:24:50;14.20;73.32
69598;SHT31;70000;51.176;-115.568;2023-08-07T08:27:19;14.14;73.24
69598;SHT31;70000;51.176;-115.568;2023-08-07T08:29:51;14.08;73.53
69598;SHT31;70000;51.176;-115.568;2023-08-07T08:32:21;14.08;73.40
69598;SHT31;70000;51.176;-115.568;2023-08-07T08:34:52;14.07;73.63
69598;SHT31;70000;51.176;-115.568;2023-08-07T08:37:24;14.06;73.67
69598;SHT31;70000;51.176;-115.568;2023-08-07T08:39:55;14.09;73.45
69598;SHT31;70000;51.176;-115.568;2023-08-07T08:42:24;14.09;73.41
69598;SHT31;70000;51.176;-115.568;2023-08-07T08:44:55;14.08;73.43
69598;SHT31;70000;51.176;-115.568;2023-08-07T08:47:29;14.08;73.50
69598;SHT31;70000;51.176;-115.568;2023-08-07T08:50:08;14.07;73.48
69598;SHT31;70000;51.176;-115.568;2023-08-07T08:52:50;14.10;73.49
69598;SHT31;70000;51.176;-115.568;2023-08-07T08:55:23;14.10;73.32
69598;SHT31;70000;51.176;-115.568;2023-08-07T08:57:59;14.09;73.30
69598;SHT31;70000;51.176;-115.568;2023-08-07T09:00:32;14.09;73.35
69598;SHT31;70000;51.176;-115.568;2023-08-07T09:03:15;14.07;73.31
69598;SHT31;70000;51.176;-115.568;2023-08-07T09:05:47;14.06;73.42
69598;SHT31;70000;51.176;-115.568;2023-08-07T09:08:22;14.07;73.36
69598;SHT31;70000;51.176;-115.568;2023-08-07T09:11:01;14.03;73.48
69598;SHT31;70000;51.176;-115.568;2023-08-07T09:13:39;14.03;73.25
69598;SHT31;70000;51.176;-115.568;2023-08-07T09:16:11;13.99;73.49
69598;SHT31;70000;51.176;-115.568;2023-08-07T09:18:48;13.98;73.37
69598;SHT31;70000;51.176;-115.568;2023-08-07T09:21:19;13.97;73.24
69598;SHT31;70000;51.176;-115.568;2023-08-07T09:23:49;13.95;73.24
69598;SHT31;70000;51.176;-115.568;2023-08-07T09:26:22;13.94;73.33
69598;SHT31;70000;51.176;-115.568;2023-08-07T09:28:55;13.93;73.36
69598;SHT31;70000;51.176;-115.568;2023-08-07T09:31:31;13.89;73.29
69598;SHT31;70000;51.176;-115.568;2023-08-07T09:34:22;13.85;73.35
69598;SHT31;70000;51.176;-115.568;2023-08-07T09:36:56;13.81;73.39
69598;SHT31;70000;51.176;-115.568;2023-08-07T09:39:29;13.79;73.63
69598;SHT31;70000;51.176;-115.568;2023-08-07T09:42:03;13.78;73.74
69598;SHT31;70000;51.176;-115.568;2023-08-07T09:44:39;13.78;73.58
69598;SHT31;70000;51.176;-115.568;2023-08-07T09:47:18;13.74;73.48
69598;SHT31;70000;51.176;-115.568;2023-08-07T09:49:47;13.72;73.56
69598;SHT31;70000;51.176;-115.568;2023-08-07T09:52:24;13.72;73.48
69598;SHT31;70000;51.176;-115.568;2023-08-07T09:54:57;13.71;73.53
69598;SHT31;70000;51.176;-115.568;2023-08-07T09:57:32;13.69;73.36
69598;SHT31;70000;51.176;-115.568;2023-08-07T10:00:12;13.66;73.30
69598;SHT31;70000;51.176;-115.568;2023-08-07T10:02:53;13.62;73.38
69598;SHT31;70000;51.176;-115.568;2023-08-07T10:05:23;13.59;73.37
69598;SHT31;70000;51.176;-115.568;2023-08-07T10:07:53;13.53;73.44
69598;SHT31;70000;51.176;-115.568;2023-08-07T10:10:25;13.50;73.75
69598;SHT31;70000;51.176;-115.568;2023-08-07T10:12:58;13.51;73.86
69598;SHT31;70000;51.176;-115.568;2023-08-07T10:15:37;13.49;73.98
69598;SHT31;70000;51.176;-115.568;2023-08-07T10:18:12;13.46;73.73
69598;SHT31;70000;51.176;-115.568;2023-08-07T10:20:44;13.43;73.91
69598;SHT31;70000;51.176;-115.568;2023-08-07T10:23:15;13.41;74.00
69598;SHT31;70000;51.176;-115.568;2023-08-07T10:25:51;13.39;73.71
69598;SHT31;70000;51.176;-115.568;2023-08-07T10:28:21;13.36;73.72
69598;SHT31;70000;51.176;-115.568;2023-08-07T10:30:55;13.32;73.96
69598;SHT31;70000;51.176;-115.568;2023-08-07T10:33:34;13.26;74.10
69598;SHT31;70000;51.176;-115.568;2023-08-07T10:36:08;13.22;74.14
69598;SHT31;70000;51.176;-115.568;2023-08-07T10:38:38;13.16;74.13
69598;SHT31;70000;51.176;-115.568;2023-08-07T10:41:12;13.14;74.23
69598;SHT31;70000;51.176;-115.568;2023-08-07T10:43:43;13.13;74.30
69598;SHT31;70000;51.176;-115.568;2023-08-07T10:46:15;13.11;74.30
69598;SHT31;70000;51.176;-115.568;2023-08-07T10:48:55;13.06;74.49
69598;SHT31;70000;51.176;-115.568;2023-08-07T10:51:29;13.05;74.60
69598;SHT31;70000;51.176;-115.568;2023-08-07T10:53:58;13.03;74.69
69598;SHT31;70000;51.176;-115.568;2023-08-07T10:56:34;13.05;74.48
69598;SHT31;70000;51.176;-115.568;2023-08-07T10:59:09;13.01;74.59
69598;SHT31;70000;51.176;-115.568;2023-08-07T11:01:41;13.01;74.45
69598;SHT31;70000;51.176;-115.568;2023-08-07T11:04:12;13.03;74.32
69598;SHT31;70000;51.176;-115.568;2023-08-07T11:06:43;13.05;74.03
69598;SHT31;70000;51.176;-115.568;2023-08-07T11:09:18;12.97;74.37
69598;SHT31;70000;51.176;-115.568;2023-08-07T11:11:49;12.92;74.48
69598;SHT31;70000;51.176;-115.568;2023-08-07T11:14:22;12.90;74.57
69598;SHT31;70000;51.176;-115.568;2023-08-07T11:16:51;12.87;74.57
69598;SHT31;70000;51.176;-115.568;2023-08-07T11:19:25;12.82;74.79
69598;SHT31;70000;51.176;-115.568;2023-08-07T11:21:54;12.77;74.75
69598;SHT31;70000;51.176;-115.568;2023-08-07T11:24:26;12.70;74.94
69598;SHT31;70000;51.176;-115.568;2023-08-07T11:26:55;12.71;74.96
69598;SHT31;70000;51.176;-115.568;2023-08-07T11:29:30;12.67;74.92
69598;SHT31;70000;51.176;-115.568;2023-08-07T11:32:01;12.66;74.97
69598;SHT31;70000;51.176;-115.568;2023-08-07T11:34:31;12.67;74.92
69598;SHT31;70000;51.176;-115.568;2023-08-07T11:37:06;12.68;74.68
69598;SHT31;70000;51.176;-115.568;2023-08-07T11:39:45;12.66;74.48
69598;SHT31;70000;51.176;-115.568;2023-08-07T11:42:18;12.66;74.45
69598;SHT31;70000;51.176;-115.568;2023-08-07T11:44:51;12.65;74.25
69598;SHT31;70000;51.176;-115.568;2023-08-07T11:47:23;12.64;74.10
69598;SHT31;70000;51.176;-115.568;2023-08-07T11:49:55;12.60;73.83
69598;SHT31;70000;51.176;-115.568;2023-08-07T11:52:24;12.56;73.85
69598;SHT31;70000;51.176;-115.568;2023-08-07T11:54:54;12.52;73.93
69598;SHT31;70000;51.176;-115.568;2023-08-07T11:57:26;12.46;74.01
69598;SHT31;70000;51.176;-115.568;2023-08-07T11:59:55;12.37;74.05
69598;SHT31;70000;51.176;-115.568;2023-08-07T12:02:27;12.32;74.00
69598;SHT31;70000;51.176;-115.568;2023-08-07T12:04:59;12.28;74.18
69598;SHT31;70000;51.176;-115.568;2023-08-07T12:07:28;12.26;74.24
69598;SHT31;70000;51.176;-115.568;2023-08-07T12:10:01;12.23;74.22
69598;SHT31;70000;51.176;-115.568;2023-08-07T12:12:37;12.19;73.94
69598;SHT31;70000;51.176;-115.568;2023-08-07T12:15:07;12.13;73.85
69598;SHT31;70000;51.176;-115.568;2023-08-07T12:17:37;12.08;73.77
69598;SHT31;70000;51.176;-115.568;2023-08-07T12:20:07;12.08;73.98
69598;SHT31;70000;51.176;-115.568;2023-08-07T12:22:38;12.05;74.05
69598;SHT31;70000;51.176;-115.568;2023-08-07T12:25:07;12.00;74.19
69598;SHT31;70000;51.176;-115.568;2023-08-07T12:27:36;11.98;74.13
69598;SHT31;70000;51.176;-115.568;2023-08-07T12:30:08;11.95;74.30
69598;SHT31;70000;51.176;-115.568;2023-08-07T12:32:38;11.91;74.20
69598;SHT31;70000;51.176;-115.568;2023-08-07T12:35:07;11.89;74.13
69598;SHT31;70000;51.176;-115.568;2023-08-07T12:37:41;11.88;74.03
69598;SHT31;70000;51.176;-115.568;2023-08-07T12:40:11;11.82;74.10
69598;SHT31;70000;51.176;-115.568;2023-08-07T12:42:43;11.80;74.21
69598;SHT31;70000;51.176;-115.568;2023-08-07T12:45:13;11.80;73.89
69598;SHT31;70000;51.176;-115.568;2023-08-07T12:47:43;11.78;73.78
69598;SHT31;70000;51.176;-115.568;2023-08-07T12:50:13;11.71;74.11
69598;SHT31;70000;51.176;-115.568;2023-08-07T12:52:42;11.70;74.40
69598;SHT31;70000;51.176;-115.568;2023-08-07T12:55:15;11.72;74.60
69598;SHT31;70000;51.176;-115.568;2023-08-07T12:57:44;11.74;74.42
69598;SHT31;70000;51.176;-115.568;2023-08-07T13:00:14;11.71;74.47
69598;SHT31;70000;51.176;-115.568;2023-08-07T13:02:46;11.69;74.48
69598;SHT31;70000;51.176;-115.568;2023-08-07T13:05:20;11.69;74.58
69598;SHT31;70000;51.176;-115.568;2023-08-07T13:07:53;11.66;74.54
69598;SHT31;70000;51.176;-115.568;2023-08-07T13:10:26;11.66;74.53
69598;SHT31;70000;51.176;-115.568;2023-08-07T13:12:59;11.68;74.34
69598;SHT31;70000;51.176;-115.568;2023-08-07T13:15:29;11.69;74.25
69598;SHT31;70000;51.176;-115.568;2023-08-07T13:17:59;11.70;74.10
69598;SHT31;70000;51.176;-115.568;2023-08-07T13:20:32;11.69;73.79
69598;SHT31;70000;51.176;-115.568;2023-08-07T13:23:04;11.67;73.65
69598;SHT31;70000;51.176;-115.568;2023-08-07T13:25:34;11.63;73.91
69598;SHT31;70000;51.176;-115.568;2023-08-07T13:28:04;11.61;73.85
69598;SHT31;70000;51.176;-115.568;2023-08-07T13:30:34;11.61;74.09
69598;SHT31;70000;51.176;-115.568;2023-08-07T13:33:04;11.64;74.14
69598;SHT31;70000;51.176;-115.568;2023-08-07T13:35:33;11.65;74.17
69598;SHT31;70000;51.176;-115.568;2023-08-07T13:38:02;11.66;73.98
69598;SHT31;70000;51.176;-115.568;2023-08-07T13:40:35;11.65;74.01
69598;SHT31;70000;51.176;-115.568;2023-08-07T13:43:05;11.63;74.00
69598;SHT31;70000;51.176;-115.568;2023-08-07T13:45:37;11.57;74.23
69598;SHT31;70000;51.176;-115.568;2023-08-07T13:48:15;11.57;74.53
69598;SHT31;70000;51.176;-115.568;2023-08-07T13:50:59;11.59;74.47
69598;SHT31;70000;51.176;-115.568;2023-08-07T13:53:32;11.60;74.25
69598;SHT31;70000;51.176;-115.568;2023-08-07T13:56:02;11.62;74.16
69598;SHT31;70000;51.176;-115.568;2023-08-07T13:58:41;11.64;74.18
69598;SHT31;70000;51.176;-115.568;2023-08-07T14:01:11;11.66;74.37
69598;SHT31;70000;51.176;-115.568;2023-08-07T14:03:40;11.67;74.38
69598;SHT31;70000;51.176;-115.568;2023-08-07T14:06:09;11.68;74.40
69598;SHT31;70000;51.176;-115.568;2023-08-07T14:08:39;11.68;74.79
69598;SHT31;70000;51.176;-115.568;2023-08-07T14:11:11;11.70;74.96
69598;SHT31;70000;51.176;-115.568;2023-08-07T14:13:42;11.73;74.89
69598;SHT31;70000;51.176;-115.568;2023-08-07T14:16:13;11.75;74.97
69598;SHT31;70000;51.176;-115.568;2023-08-07T14:18:42;11.78;75.24
69598;SHT31;70000;51.176;-115.568;2023-08-07T14:21:12;11.83;75.09
69598;SHT31;70000;51.176;-115.568;2023-08-07T14:23:41;11.86;75.19
69598;SHT31;70000;51.176;-115.568;2023-08-07T14:26:13;11.87;75.08
69598;SHT31;70000;51.176;-115.568;2023-08-07T14:28:42;11.90;74.97
69598;SHT31;70000;51.176;-115.568;2023-08-07T14:31:11;11.93;75.28
69598;SHT31;70000;51.176;-115.568;2023-08-07T14:33:41;11.98;74.84
69598;SHT31;70000;51.176;-115.568;2023-08-07T14:36:10;12.03;74.47
69598;SHT31;70000;51.176;-115.568;2023-08-07T14:38:39;12.06;74.14
69598;SHT31;70000;51.176;-115.568;2023-08-07T14:41:09;12.06;74.28
69598;SHT31;70000;51.176;-115.568;2023-08-07T14:43:38;12.10;74.78
69598;SHT31;70000;51.176;-115.568;2023-08-07T14:46:07;12.16;74.45
69598;SHT31;70000;51.176;-115.568;2023-08-07T14:48:37;12.19;74.50
69598;SHT31;70000;51.176;-115.568;2023-08-07T14:51:06;12.24;74.88
69598;SHT31;70000;51.176;-115.568;2023-08-07T14:53:35;12.28;74.83
69598;SHT31;70000;51.176;-115.568;2023-08-07T14:56:04;12.34;74.49
69598;SHT31;70000;51.176;-115.568;2023-08-07T14:58:36;12.40;74.57
69598;SHT31;70000;51.176;-115.568;2023-08-07T15:01:05;12.46;74.30
69598;SHT31;70000;51.176;-115.568;2023-08-07T15:03:35;12.48;73.86
69598;SHT31;70000;51.176;-115.568;2023-08-07T15:06:07;12.50;73.86
69598;SHT31;70000;51.176;-115.568;2023-08-07T15:08:36;12.50;73.71
69598;SHT31;70000;51.176;-115.568;2023-08-07T15:11:06;12.54;73.71
69598;SHT31;70000;51.176;-115.568;2023-08-07T15:13:35;12.57;74.01
69598;SHT31;70000;51.176;-115.568;2023-08-07T15:16:04;12.61;74.51
69598;SHT31;70000;51.176;-115.568;2023-08-07T15:18:36;12.66;74.70
69598;SHT31;70000;51.176;-115.568;2023-08-07T15:21:07;12.72;74.77
69598;SHT31;70000;51.176;-115.568;2023-08-07T15:23:38;12.79;74.67
69598;SHT31;70000;51.176;-115.568;2023-08-07T15:26:07;12.86;74.91
69598;SHT31;70000;51.176;-115.568;2023-08-07T15:28:36;12.94;75.02
69598;SHT31;70000;51.176;-115.568;2023-08-07T15:31:05;13.02;74.98